sensor_id;sensor_type;location;lat;lon;timestamp;P1;durP1;ratioP1;P2;durP2;ratioP2
58338;SDS011;68636;52.704;6.536;2023-07-31T00:01:10;5.22;;;1.48;;
58338;SDS011;68636;52.704;6.536;2023-07-31T00:03:36;5.78;;;1.35;;
58338;SDS011;68636;52.704;6.536;2023-07-31T00:06:02;4.22;;;1.58;;
58338;SDS011;68636;52.704;6.536;2023-07-31T00:08:28;5.13;;;1.30;;
58338;SDS011;68636;52.704;6.536;2023-07-31T00:10:53;4.32;;;1.38;;
58338;SDS011;68636;52.704;6.536;2023-07-31T00:13:19;7.05;;;1.55;;
58338;SDS011;68636;52.704;6.536;2023-07-31T00:15:45;3.78;;;1.40;;
58338;SDS011;68636;52.704;6.536;2023-07-31T00:18:11;4.13;;;1.50;;
58338;SDS011;68636;52.704;6.536;2023-07-31T00:20:36;4.35;;;1.67;;
58338;SDS011;68636;52.704;6.536;2023-07-31T00:23:02;5.55;;;1.52;;
58338;SDS011;68636;52.704;6.536;2023-07-31T00:25:28;3.92;;;1.40;;
58338;SDS011;68636;52.704;6.536;2023-07-31T00:27:53;5.25;;;1.40;;
58338;SDS011;68636;52.704;6.536;2023-07-31T00:30:19;5.93;;;1.58;;
58338;SDS011;68636;52.704;6.536;2023-07-31T00:32:45;4.25;;;1.25;;
58338;SDS011;68636;52.704;6.536;2023-07-31T00:35:11;4.38;;;1.45;;
58338;SDS011;68636;52.704;6.536;2023-07-31T00:37:36;3.78;;;1.45;;
58338;SDS011;68636;52.704;6.536;2023-07-31T00:40:02;5.93;;;1.40;;
58338;SDS011;68636;52.704;6.536;2023-07-31T00:42:28;2.97;;;1.02;;
58338;SDS011;68636;52.704;6.536;2023-07-31T00:44:54;4.20;;;1.35;;
58338;SDS011;68636;52.704;6.536;2023-07-31T00:47:20;4.13;;;1.30;;
58338;SDS011;68636;52.704;6.536;2023-07-31T00:49:45;4.78;;;1.20;;
58338;SDS011;68636;52.704;6.536;2023-07-31T00:52:11;4.78;;;1.35;;
58338;SDS011;68636;52.704;6.536;2023-07-31T00:54:38;3.83;;;0.90;;
58338;SDS011;68636;52.704;6.536;2023-07-31T00:57:04;3.90;;;1.05;;
58338;SDS011;68636;52.704;6.536;2023-07-31T00:59:30;3.60;;;1.27;;
58338;SDS011;68636;52.704;6.536;2023-07-31T01:01:56;6.25;;;1.15;;
58338;SDS011;68636;52.704;6.536;2023-07-31T01:04:21;5.25;;;1.30;;
58338;SDS011;68636;52.704;6.536;2023-07-31T01:06:48;3.55;;;0.90;;
58338;SDS011;68636;52.704;6.536;2023-07-31T01:12:07;3.30;;;0.95;;
58338;SDS011;68636;52.704;6.536;2023-07-31T01:14:37;2.85;;;0.77;;
58338;SDS011;68636;52.704;6.536;2023-07-31T01:17:04;2.92;;;0.80;;
58338;SDS011;68636;52.704;6.536;2023-07-31T01:19:30;3.28;;;0.70;;
58338;SDS011;68636;52.704;6.536;2023-07-31T01:28:19;1.40;;;0.40;;
58338;SDS011;68636;52.704;6.536;2023-07-31T01:30:50;4.00;;;0.60;;
58338;SDS011;68636;52.704;6.536;2023-07-31T01:33:16;2.17;;;0.70;;
58338;SDS011;68636;52.704;6.536;2023-07-31T01:35:43;2.88;;;0.70;;
58338;SDS011;68636;52.704;6.536;2023-07-31T01:38:11;2.33;;;0.60;;
58338;SDS011;68636;52.704;6.536;2023-07-31T01:40:37;2.58;;;0.75;;
58338;SDS011;68636;52.704;6.536;2023-07-31T01:43:02;1.95;;;0.73;;
58338;SDS011;68636;52.704;6.536;2023-07-31T01:45:28;2.30;;;0.82;;
58338;SDS011;68636;52.704;6.536;2023-07-31T01:47:54;3.47;;;0.93;;
58338;SDS011;68636;52.704;6.536;2023-07-31T01:50:20;3.92;;;0.77;;
58338;SDS011;68636;52.704;6.536;2023-07-31T01:52:45;4.43;;;1.00;;
58338;SDS011;68636;52.704;6.536;2023-07-31T01:55:11;3.38;;;0.70;;
58338;SDS011;68636;52.704;6.536;2023-07-31T01:57:37;3.28;;;1.13;;
58338;SDS011;68636;52.704;6.536;2023-07-31T02:00:03;2.22;;;0.75;;
58338;SDS011;68636;52.704;6.536;2023-07-31T02:02:29;3.17;;;1.00;;
58338;SDS011;68636;52.704;6.536;2023-07-31T02:04:55;3.22;;;0.75;;
58338;SDS011;68636;52.704;6.536;2023-07-31T02:07:20;1.70;;;0.65;;
58338;SDS011;68636;52.704;6.536;2023-07-31T02:09:46;2.30;;;0.70;;
58338;SDS011;68636;52.704;6.536;2023-07-31T02:12:13;2.00;;;0.70;;
58338;SDS011;68636;52.704;6.536;2023-07-31T02:14:39;4.53;;;0.70;;
58338;SDS011;68636;52.704;6.536;2023-07-31T02:17:06;2.47;;;0.70;;
58338;SDS011;68636;52.704;6.536;2023-07-31T02:19:31;3.40;;;0.80;;
58338;SDS011;68636;52.704;6.536;2023-07-31T02:21:57;2.20;;;0.70;;
58338;SDS011;68636;52.704;6.536;2023-07-31T02:24:23;3.20;;;0.80;;
58338;SDS011;68636;52.704;6.536;2023-07-31T02:26:49;3.03;;;1.10;;
58338;SDS011;68636;52.704;6.536;2023-07-31T02:29:15;2.50;;;0.70;;
58338;SDS011;68636;52.704;6.536;2023-07-31T02:31:41;2.30;;;0.90;;
58338;SDS011;68636;52.704;6.536;2023-07-31T02:34:07;2.42;;;1.00;;
58338;SDS011;68636;52.704;6.536;2023-07-31T02:36:32;2.15;;;0.70;;
58338;SDS011;68636;52.704;6.536;2023-07-31T02:38:58;4.00;;;1.13;;
58338;SDS011;68636;52.704;6.536;2023-07-31T02:41:24;1.88;;;0.68;;
58338;SDS011;68636;52.704;6.536;2023-07-31T02:43:49;3.28;;;1.10;;
58338;SDS011;68636;52.704;6.536;2023-07-31T02:46:15;3.92;;;0.93;;
58338;SDS011;68636;52.704;6.536;2023-07-31T02:48:41;3.67;;;1.20;;
58338;SDS011;68636;52.704;6.536;2023-07-31T02:51:06;5.97;;;1.05;;
58338;SDS011;68636;52.704;6.536;2023-07-31T02:53:32;5.82;;;0.90;;
58338;SDS011;68636;52.704;6.536;2023-07-31T02:55:58;3.85;;;0.95;;
58338;SDS011;68636;52.704;6.536;2023-07-31T02:58:23;4.82;;;1.15;;
58338;SDS011;68636;52.704;6.536;2023-07-31T03:00:49;3.40;;;1.00;;
58338;SDS011;68636;52.704;6.536;2023-07-31T03:03:15;3.30;;;1.00;;
58338;SDS011;68636;52.704;6.536;2023-07-31T03:05:40;4.15;;;1.05;;
58338;SDS011;68636;52.704;6.536;2023-07-31T03:08:06;2.45;;;0.82;;
58338;SDS011;68636;52.704;6.536;2023-07-31T03:10:32;8.32;;;1.42;;
58338;SDS011;68636;52.704;6.536;2023-07-31T03:12:57;4.22;;;1.10;;
58338;SDS011;68636;52.704;6.536;2023-07-31T03:15:23;4.13;;;1.23;;
58338;SDS011;68636;52.704;6.536;2023-07-31T03:17:49;2.90;;;0.90;;
58338;SDS011;68636;52.704;6.536;2023-07-31T03:20:15;3.63;;;1.00;;
58338;SDS011;68636;52.704;6.536;2023-07-31T03:22:40;5.13;;;0.90;;
58338;SDS011;68636;52.704;6.536;2023-07-31T03:25:06;2.60;;;0.90;;
58338;SDS011;68636;52.704;6.536;2023-07-31T03:27:32;6.03;;;0.93;;
58338;SDS011;68636;52.704;6.536;2023-07-31T03:29:58;2.45;;;0.80;;
58338;SDS011;68636;52.704;6.536;2023-07-31T03:32:24;3.50;;;0.70;;
58338;SDS011;68636;52.704;6.536;2023-07-31T03:34:50;2.88;;;0.88;;
58338;SDS011;68636;52.704;6.536;2023-07-31T03:37:16;3.72;;;0.60;;
58338;SDS011;68636;52.704;6.536;2023-07-31T03:39:41;2.70;;;0.60;;
58338;SDS011;68636;52.704;6.536;2023-07-31T03:42:07;2.17;;;0.55;;
58338;SDS011;68636;52.704;6.536;2023-07-31T03:44:33;1.98;;;0.70;;
58338;SDS011;68636;52.704;6.536;2023-07-31T03:46:58;2.75;;;0.70;;
58338;SDS011;68636;52.704;6.536;2023-07-31T03:49:24;2.67;;;0.60;;
58338;SDS011;68636;52.704;6.536;2023-07-31T03:51:50;2.63;;;0.80;;
58338;SDS011;68636;52.704;6.536;2023-07-31T03:54:15;2.50;;;0.60;;
58338;SDS011;68636;52.704;6.536;2023-07-31T03:56:41;2.40;;;0.50;;
58338;SDS011;68636;52.704;6.536;2023-07-31T03:59:07;3.05;;;0.40;;
58338;SDS011;68636;52.704;6.536;2023-07-31T04:01:32;1.95;;;0.50;;
58338;SDS011;68636;52.704;6.536;2023-07-31T04:03:58;3.50;;;0.50;;
58338;SDS011;68636;52.704;6.536;2023-07-31T04:06:24;6.22;;;0.93;;
58338;SDS011;68636;52.704;6.536;2023-07-31T04:08:50;2.40;;;0.60;;
58338;SDS011;68636;52.704;6.536;2023-07-31T04:11:15;6.15;;;0.75;;
58338;SDS011;68636;52.704;6.536;2023-07-31T04:13:41;3.65;;;0.60;;
58338;SDS011;68636;52.704;6.536;2023-07-31T04:16:07;2.95;;;0.70;;
58338;SDS011;68636;52.704;6.536;2023-07-31T04:18:33;4.82;;;0.68;;
58338;SDS011;68636;52.704;6.536;2023-07-31T04:20:59;6.72;;;1.10;;
58338;SDS011;68636;52.704;6.536;2023-07-31T04:23:26;4.55;;;1.10;;
58338;SDS011;68636;52.704;6.536;2023-07-31T04:25:52;4.28;;;1.40;;
58338;SDS011;68636;52.704;6.536;2023-07-31T04:28:17;7.70;;;1.67;;
58338;SDS011;68636;52.704;6.536;2023-07-31T04:30:43;14.32;;;2.70;;
58338;SDS011;68636;52.704;6.536;2023-07-31T04:33:09;14.27;;;3.33;;
58338;SDS011;68636;52.704;6.536;2023-07-31T04:35:35;11.68;;;3.35;;
58338;SDS011;68636;52.704;6.536;2023-07-31T04:38:01;20.50;;;4.75;;
58338;SDS011;68636;52.704;6.536;2023-07-31T04:40:27;24.10;;;5.13;;
58338;SDS011;68636;52.704;6.536;2023-07-31T04:42:52;15.77;;;4.18;;
58338;SDS011;68636;52.704;6.536;2023-07-31T04:45:18;23.08;;;5.13;;
58338;SDS011;68636;52.704;6.536;2023-07-31T04:47:44;20.33;;;5.22;;
58338;SDS011;68636;52.704;6.536;2023-07-31T04:50:09;23.63;;;4.95;;
58338;SDS011;68636;52.704;6.536;2023-07-31T04:52:35;20.83;;;4.93;;
58338;SDS011;68636;52.704;6.536;2023-07-31T04:55:01;19.45;;;4.80;;
58338;SDS011;68636;52.704;6.536;2023-07-31T04:57:27;24.80;;;5.47;;
58338;SDS011;68636;52.704;6.536;2023-07-31T04:59:52;17.65;;;4.57;;
58338;SDS011;68636;52.704;6.536;2023-07-31T05:02:18;26.58;;;5.97;;
58338;SDS011;68636;52.704;6.536;2023-07-31T05:04:44;27.80;;;6.05;;
58338;SDS011;68636;52.704;6.536;2023-07-31T05:07:09;23.60;;;5.38;;
58338;SDS011;68636;52.704;6.536;2023-07-31T05:09:35;28.27;;;5.57;;
58338;SDS011;68636;52.704;6.536;2023-07-31T05:12:01;25.38;;;6.65;;
58338;SDS011;68636;52.704;6.536;2023-07-31T05:14:27;27.45;;;6.25;;
58338;SDS011;68636;52.704;6.536;2023-07-31T05:16:52;27.33;;;6.38;;
58338;SDS011;68636;52.704;6.536;2023-07-31T05:19:18;25.88;;;6.00;;
58338;SDS011;68636;52.704;6.536;2023-07-31T05:21:44;25.88;;;6.10;;
58338;SDS011;68636;52.704;6.536;2023-07-31T05:24:10;25.88;;;6.28;;
58338;SDS011;68636;52.704;6.536;2023-07-31T05:26:36;32.97;;;6.22;;
58338;SDS011;68636;52.704;6.536;2023-07-31T05:29:03;37.63;;;6.95;;
58338;SDS011;68636;52.704;6.536;2023-07-31T05:31:28;37.05;;;7.43;;
58338;SDS011;68636;52.704;6.536;2023-07-31T05:33:54;27.67;;;6.72;;
58338;SDS011;68636;52.704;6.536;2023-07-31T05:36:20;32.28;;;7.07;;
58338;SDS011;68636;52.704;6.536;2023-07-31T05:38:46;32.25;;;6.07;;
58338;SDS011;68636;52.704;6.536;2023-07-31T05:41:12;33.83;;;7.10;;
58338;SDS011;68636;52.704;6.536;2023-07-31T05:43:38;35.63;;;6.07;;
58338;SDS011;68636;52.704;6.536;2023-07-31T05:46:04;31.25;;;6.90;;
58338;SDS011;68636;52.704;6.536;2023-07-31T05:48:29;23.98;;;7.05;;
58338;SDS011;68636;52.704;6.536;2023-07-31T05:50:55;33.08;;;7.35;;
58338;SDS011;68636;52.704;6.536;2023-07-31T05:53:21;31.90;;;7.90;;
58338;SDS011;68636;52.704;6.536;2023-07-31T05:55:47;35.17;;;7.63;;
58338;SDS011;68636;52.704;6.536;2023-07-31T05:58:13;30.08;;;8.52;;
58338;SDS011;68636;52.704;6.536;2023-07-31T06:00:38;27.63;;;7.95;;
58338;SDS011;68636;52.704;6.536;2023-07-31T06:03:04;29.48;;;7.78;;
58338;SDS011;68636;52.704;6.536;2023-07-31T06:05:30;30.35;;;8.00;;
58338;SDS011;68636;52.704;6.536;2023-07-31T06:07:56;26.52;;;7.90;;
58338;SDS011;68636;52.704;6.536;2023-07-31T06:10:22;33.30;;;8.30;;
58338;SDS011;68636;52.704;6.536;2023-07-31T06:12:48;25.25;;;7.28;;
58338;SDS011;68636;52.704;6.536;2023-07-31T06:15:14;25.35;;;7.07;;
58338;SDS011;68636;52.704;6.536;2023-07-31T06:17:40;30.23;;;8.40;;
58338;SDS011;68636;52.704;6.536;2023-07-31T06:20:06;31.27;;;8.75;;
58338;SDS011;68636;52.704;6.536;2023-07-31T06:22:32;27.23;;;8.35;;
58338;SDS011;68636;52.704;6.536;2023-07-31T06:24:58;29.13;;;8.20;;
58338;SDS011;68636;52.704;6.536;2023-07-31T06:27:24;32.13;;;7.93;;
58338;SDS011;68636;52.704;6.536;2023-07-31T06:29:50;24.17;;;7.78;;
58338;SDS011;68636;52.704;6.536;2023-07-31T06:32:15;29.10;;;8.60;;
58338;SDS011;68636;52.704;6.536;2023-07-31T06:34:41;27.67;;;8.35;;
58338;SDS011;68636;52.704;6.536;2023-07-31T06:37:07;24.73;;;8.27;;
58338;SDS011;68636;52.704;6.536;2023-07-31T06:39:33;28.23;;;8.70;;
58338;SDS011;68636;52.704;6.536;2023-07-31T06:41:58;32.78;;;8.45;;
58338;SDS011;68636;52.704;6.536;2023-07-31T06:44:24;31.40;;;8.73;;
58338;SDS011;68636;52.704;6.536;2023-07-31T06:46:50;24.50;;;7.78;;
58338;SDS011;68636;52.704;6.536;2023-07-31T06:49:16;24.98;;;8.07;;
58338;SDS011;68636;52.704;6.536;2023-07-31T06:51:41;26.08;;;7.80;;
58338;SDS011;68636;52.704;6.536;2023-07-31T06:54:10;26.23;;;6.55;;
58338;SDS011;68636;52.704;6.536;2023-07-31T06:56:36;24.83;;;7.25;;
58338;SDS011;68636;52.704;6.536;2023-07-31T06:59:02;24.38;;;6.85;;
58338;SDS011;68636;52.704;6.536;2023-07-31T07:01:28;18.50;;;5.70;;
58338;SDS011;68636;52.704;6.536;2023-07-31T07:03:54;19.80;;;4.80;;
58338;SDS011;68636;52.704;6.536;2023-07-31T07:06:20;19.25;;;4.93;;
58338;SDS011;68636;52.704;6.536;2023-07-31T07:08:47;19.45;;;5.43;;
58338;SDS011;68636;52.704;6.536;2023-07-31T07:11:13;14.13;;;4.05;;
58338;SDS011;68636;52.704;6.536;2023-07-31T07:13:39;20.42;;;4.53;;
58338;SDS011;68636;52.704;6.536;2023-07-31T07:16:05;17.00;;;5.10;;
58338;SDS011;68636;52.704;6.536;2023-07-31T07:18:31;15.37;;;4.00;;
58338;SDS011;68636;52.704;6.536;2023-07-31T07:20:57;12.30;;;3.50;;
58338;SDS011;68636;52.704;6.536;2023-07-31T07:23:23;12.95;;;3.67;;
58338;SDS011;68636;52.704;6.536;2023-07-31T07:25:49;11.60;;;3.55;;
58338;SDS011;68636;52.704;6.536;2023-07-31T07:28:16;9.90;;;3.15;;
58338;SDS011;68636;52.704;6.536;2023-07-31T07:30:42;14.77;;;3.50;;
58338;SDS011;68636;52.704;6.536;2023-07-31T07:33:08;10.63;;;3.27;;
58338;SDS011;68636;52.704;6.536;2023-07-31T07:35:34;10.43;;;3.15;;
58338;SDS011;68636;52.704;6.536;2023-07-31T07:38:01;9.85;;;2.92;;
58338;SDS011;68636;52.704;6.536;2023-07-31T07:40:27;11.65;;;3.40;;
58338;SDS011;68636;52.704;6.536;2023-07-31T07:42:53;10.55;;;3.30;;
58338;SDS011;68636;52.704;6.536;2023-07-31T07:45:19;11.40;;;3.23;;
58338;SDS011;68636;52.704;6.536;2023-07-31T07:47:44;10.80;;;3.30;;
58338;SDS011;68636;52.704;6.536;2023-07-31T07:50:10;12.33;;;3.57;;
58338;SDS011;68636;52.704;6.536;2023-07-31T07:52:36;11.87;;;3.90;;
58338;SDS011;68636;52.704;6.536;2023-07-31T07:55:02;11.52;;;2.97;;
58338;SDS011;68636;52.704;6.536;2023-07-31T07:57:28;12.00;;;3.10;;
58338;SDS011;68636;52.704;6.536;2023-07-31T07:59:54;12.45;;;3.35;;
58338;SDS011;68636;52.704;6.536;2023-07-31T08:02:21;10.63;;;3.43;;
58338;SDS011;68636;52.704;6.536;2023-07-31T08:07:12;11.20;;;3.20;;
58338;SDS011;68636;52.704;6.536;2023-07-31T08:09:38;9.63;;;2.60;;
58338;SDS011;68636;52.704;6.536;2023-07-31T08:12:05;8.27;;;2.55;;
58338;SDS011;68636;52.704;6.536;2023-07-31T08:14:31;8.63;;;2.83;;
58338;SDS011;68636;52.704;6.536;2023-07-31T08:16:57;9.47;;;3.17;;
58338;SDS011;68636;52.704;6.536;2023-07-31T08:19:23;11.87;;;3.60;;
58338;SDS011;68636;52.704;6.536;2023-07-31T08:21:49;7.18;;;2.88;;
58338;SDS011;68636;52.704;6.536;2023-07-31T08:24:14;6.93;;;2.73;;
58338;SDS011;68636;52.704;6.536;2023-07-31T08:26:40;9.75;;;2.40;;
58338;SDS011;68636;52.704;6.536;2023-07-31T08:29:06;8.70;;;2.55;;
58338;SDS011;68636;52.704;6.536;2023-07-31T08:31:32;8.02;;;2.47;;
58338;SDS011;68636;52.704;6.536;2023-07-31T08:33:57;6.25;;;2.50;;
58338;SDS011;68636;52.704;6.536;2023-07-31T08:36:23;7.07;;;2.57;;
58338;SDS011;68636;52.704;6.536;2023-07-31T08:38:49;7.50;;;2.13;;
58338;SDS011;68636;52.704;6.536;2023-07-31T08:41:15;5.82;;;1.83;;
58338;SDS011;68636;52.704;6.536;2023-07-31T08:43:44;5.55;;;2.10;;
58338;SDS011;68636;52.704;6.536;2023-07-31T08:46:11;5.53;;;2.22;;
58338;SDS011;68636;52.704;6.536;2023-07-31T08:48:38;7.03;;;1.70;;
58338;SDS011;68636;52.704;6.536;2023-07-31T08:51:05;8.40;;;1.70;;
58338;SDS011;68636;52.704;6.536;2023-07-31T08:53:32;5.18;;;1.75;;
58338;SDS011;68636;52.704;6.536;2023-07-31T08:55:58;4.68;;;1.77;;
58338;SDS011;68636;52.704;6.536;2023-07-31T08:58:24;6.10;;;1.77;;
58338;SDS011;68636;52.704;6.536;2023-07-31T09:00:52;6.85;;;2.00;;
58338;SDS011;68636;52.704;6.536;2023-07-31T09:03:21;4.50;;;1.88;;
58338;SDS011;68636;52.704;6.536;2023-07-31T09:05:48;5.30;;;2.30;;
58338;SDS011;68636;52.704;6.536;2023-07-31T09:08:16;3.35;;;1.52;;
58338;SDS011;68636;52.704;6.536;2023-07-31T09:10:45;5.60;;;1.15;;
58338;SDS011;68636;52.704;6.536;2023-07-31T09:13:14;3.88;;;1.20;;
58338;SDS011;68636;52.704;6.536;2023-07-31T09:15:42;4.93;;;1.40;;
58338;SDS011;68636;52.704;6.536;2023-07-31T09:18:10;4.30;;;1.30;;
58338;SDS011;68636;52.704;6.536;2023-07-31T09:20:36;2.67;;;0.93;;
58338;SDS011;68636;52.704;6.536;2023-07-31T09:25:36;3.97;;;0.70;;
58338;SDS011;68636;52.704;6.536;2023-07-31T09:28:03;3.03;;;1.10;;
58338;SDS011;68636;52.704;6.536;2023-07-31T09:30:49;4.28;;;0.68;;
58338;SDS011;68636;52.704;6.536;2023-07-31T09:33:17;3.65;;;1.08;;
58338;SDS011;68636;52.704;6.536;2023-07-31T09:35:44;3.85;;;0.77;;
58338;SDS011;68636;52.704;6.536;2023-07-31T09:38:11;3.00;;;1.10;;
58338;SDS011;68636;52.704;6.536;2023-07-31T09:40:38;3.28;;;0.80;;
58338;SDS011;68636;52.704;6.536;2023-07-31T09:43:09;2.17;;;0.80;;
58338;SDS011;68636;52.704;6.536;2023-07-31T09:45:36;2.72;;;0.93;;
58338;SDS011;68636;52.704;6.536;2023-07-31T09:48:07;2.97;;;1.15;;
58338;SDS011;68636;52.704;6.536;2023-07-31T09:50:41;3.50;;;1.10;;
58338;SDS011;68636;52.704;6.536;2023-07-31T09:53:08;3.33;;;1.02;;
58338;SDS011;68636;52.704;6.536;2023-07-31T09:55:35;4.20;;;0.90;;
58338;SDS011;68636;52.704;6.536;2023-07-31T09:58:05;3.33;;;1.10;;
58338;SDS011;68636;52.704;6.536;2023-07-31T10:00:33;3.03;;;1.10;;
58338;SDS011;68636;52.704;6.536;2023-07-31T10:03:00;3.05;;;1.10;;
58338;SDS011;68636;52.704;6.536;2023-07-31T10:05:36;2.55;;;1.00;;
58338;SDS011;68636;52.704;6.536;2023-07-31T10:08:06;3.38;;;1.27;;
58338;SDS011;68636;52.704;6.536;2023-07-31T10:10:34;2.95;;;1.20;;
58338;SDS011;68636;52.704;6.536;2023-07-31T10:13:01;3.15;;;1.42;;
58338;SDS011;68636;52.704;6.536;2023-07-31T10:15:29;5.65;;;1.70;;
58338;SDS011;68636;52.704;6.536;2023-07-31T10:17:55;3.90;;;1.65;;
58338;SDS011;68636;52.704;6.536;2023-07-31T10:20:22;4.22;;;1.58;;
58338;SDS011;68636;52.704;6.536;2023-07-31T10:22:48;3.55;;;1.38;;
58338;SDS011;68636;52.704;6.536;2023-07-31T10:25:15;5.50;;;2.05;;
58338;SDS011;68636;52.704;6.536;2023-07-31T10:27:42;3.40;;;1.38;;
58338;SDS011;68636;52.704;6.536;2023-07-31T10:30:11;4.47;;;1.33;;
58338;SDS011;68636;52.704;6.536;2023-07-31T10:32:40;2.72;;;1.30;;
58338;SDS011;68636;52.704;6.536;2023-07-31T10:35:07;4.25;;;1.45;;
58338;SDS011;68636;52.704;6.536;2023-07-31T10:37:37;2.65;;;1.20;;
58338;SDS011;68636;52.704;6.536;2023-07-31T10:40:12;2.80;;;1.00;;
58338;SDS011;68636;52.704;6.536;2023-07-31T10:42:47;3.47;;;1.30;;
58338;SDS011;68636;52.704;6.536;2023-07-31T10:45:24;2.53;;;1.10;;
58338;SDS011;68636;52.704;6.536;2023-07-31T10:48:02;2.20;;;1.10;;
58338;SDS011;68636;52.704;6.536;2023-07-31T10:50:51;3.33;;;1.10;;
58338;SDS011;68636;52.704;6.536;2023-07-31T10:53:39;2.30;;;0.98;;
58338;SDS011;68636;52.704;6.536;2023-07-31T10:56:06;3.65;;;0.90;;
58338;SDS011;68636;52.704;6.536;2023-07-31T10:58:34;4.13;;;1.30;;
58338;SDS011;68636;52.704;6.536;2023-07-31T11:01:01;3.45;;;1.40;;
58338;SDS011;68636;52.704;6.536;2023-07-31T11:03:45;3.50;;;1.50;;
58338;SDS011;68636;52.704;6.536;2023-07-31T11:06:12;2.90;;;1.30;;
58338;SDS011;68636;52.704;6.536;2023-07-31T11:08:42;4.13;;;1.65;;
58338;SDS011;68636;52.704;6.536;2023-07-31T11:11:13;2.85;;;1.40;;
58338;SDS011;68636;52.704;6.536;2023-07-31T11:13:47;3.40;;;1.05;;
58338;SDS011;68636;52.704;6.536;2023-07-31T11:16:15;3.80;;;1.20;;
58338;SDS011;68636;52.704;6.536;2023-07-31T11:18:43;3.10;;;1.50;;
58338;SDS011;68636;52.704;6.536;2023-07-31T11:21:13;3.88;;;1.10;;
58338;SDS011;68636;52.704;6.536;2023-07-31T11:23:40;2.47;;;1.10;;
58338;SDS011;68636;52.704;6.536;2023-07-31T11:26:07;1.83;;;0.60;;
58338;SDS011;68636;52.704;6.536;2023-07-31T11:28:34;2.13;;;0.88;;
58338;SDS011;68636;52.704;6.536;2023-07-31T11:31:00;1.73;;;0.60;;
58338;SDS011;68636;52.704;6.536;2023-07-31T11:33:27;2.05;;;0.80;;
58338;SDS011;68636;52.704;6.536;2023-07-31T11:35:53;2.00;;;0.87;;
58338;SDS011;68636;52.704;6.536;2023-07-31T11:38:28;1.93;;;0.80;;
58338;SDS011;68636;52.704;6.536;2023-07-31T11:40:56;1.77;;;0.65;;
58338;SDS011;68636;52.704;6.536;2023-07-31T11:43:23;1.55;;;0.40;;
58338;SDS011;68636;52.704;6.536;2023-07-31T11:45:50;0.85;;;0.30;;
58338;SDS011;68636;52.704;6.536;2023-07-31T11:48:18;7.00;;;0.40;;
58338;SDS011;68636;52.704;6.536;2023-07-31T11:50:50;3.38;;;0.38;;
58338;SDS011;68636;52.704;6.536;2023-07-31T11:53:17;2.17;;;0.50;;
58338;SDS011;68636;52.704;6.536;2023-07-31T11:56:05;1.33;;;0.57;;
58338;SDS011;68636;52.704;6.536;2023-07-31T11:58:33;2.75;;;0.80;;
58338;SDS011;68636;52.704;6.536;2023-07-31T12:01:00;1.40;;;0.70;;
58338;SDS011;68636;52.704;6.536;2023-07-31T12:03:27;1.60;;;0.60;;
58338;SDS011;68636;52.704;6.536;2023-07-31T12:05:53;1.80;;;0.67;;
58338;SDS011;68636;52.704;6.536;2023-07-31T12:08:23;1.17;;;0.55;;
58338;SDS011;68636;52.704;6.536;2023-07-31T12:10:50;2.85;;;0.80;;
58338;SDS011;68636;52.704;6.536;2023-07-31T12:13:20;2.90;;;0.82;;
58338;SDS011;68636;52.704;6.536;2023-07-31T12:15:48;2.72;;;0.90;;
58338;SDS011;68636;52.704;6.536;2023-07-31T12:18:15;4.00;;;0.93;;
58338;SDS011;68636;52.704;6.536;2023-07-31T12:20:45;3.22;;;1.20;;
58338;SDS011;68636;52.704;6.536;2023-07-31T12:23:20;5.63;;;1.25;;
58338;SDS011;68636;52.704;6.536;2023-07-31T12:28:27;3.58;;;0.70;;
58338;SDS011;68636;52.704;6.536;2023-07-31T12:30:56;5.00;;;0.90;;
58338;SDS011;68636;52.704;6.536;2023-07-31T12:33:29;4.57;;;0.90;;
58338;SDS011;68636;52.704;6.536;2023-07-31T12:36:00;4.38;;;1.17;;
58338;SDS011;68636;52.704;6.536;2023-07-31T12:38:27;5.07;;;1.30;;
58338;SDS011;68636;52.704;6.536;2023-07-31T12:40:53;5.47;;;1.30;;
58338;SDS011;68636;52.704;6.536;2023-07-31T12:43:18;5.90;;;1.90;;
58338;SDS011;68636;52.704;6.536;2023-07-31T12:45:44;5.77;;;1.33;;
58338;SDS011;68636;52.704;6.536;2023-07-31T12:48:10;5.07;;;1.57;;
58338;SDS011;68636;52.704;6.536;2023-07-31T12:50:36;3.13;;;1.60;;
58338;SDS011;68636;52.704;6.536;2023-07-31T12:53:02;4.70;;;1.90;;
58338;SDS011;68636;52.704;6.536;2023-07-31T12:55:28;3.42;;;1.63;;
58338;SDS011;68636;52.704;6.536;2023-07-31T13:00:21;5.70;;;1.52;;
58338;SDS011;68636;52.704;6.536;2023-07-31T13:02:47;6.13;;;1.73;;
58338;SDS011;68636;52.704;6.536;2023-07-31T13:05:12;5.47;;;2.03;;
58338;SDS011;68636;52.704;6.536;2023-07-31T13:07:39;7.10;;;2.20;;
58338;SDS011;68636;52.704;6.536;2023-07-31T13:10:05;6.88;;;2.42;;
58338;SDS011;68636;52.704;6.536;2023-07-31T13:14:57;5.93;;;2.10;;
58338;SDS011;68636;52.704;6.536;2023-07-31T13:17:23;7.07;;;2.10;;
58338;SDS011;68636;52.704;6.536;2023-07-31T13:19:49;5.93;;;1.70;;
58338;SDS011;68636;52.704;6.536;2023-07-31T13:22:14;4.43;;;1.57;;
58338;SDS011;68636;52.704;6.536;2023-07-31T13:24:40;4.63;;;1.30;;
58338;SDS011;68636;52.704;6.536;2023-07-31T13:27:06;5.90;;;1.80;;
58338;SDS011;68636;52.704;6.536;2023-07-31T13:29:32;6.20;;;1.70;;
58338;SDS011;68636;52.704;6.536;2023-07-31T13:31:58;5.93;;;1.93;;
58338;SDS011;68636;52.704;6.536;2023-07-31T13:34:23;6.20;;;1.93;;
58338;SDS011;68636;52.704;6.536;2023-07-31T13:36:49;7.13;;;2.80;;
58338;SDS011;68636;52.704;6.536;2023-07-31T13:39:15;7.87;;;2.63;;
58338;SDS011;68636;52.704;6.536;2023-07-31T13:41:41;8.30;;;3.10;;
58338;SDS011;68636;52.704;6.536;2023-07-31T13:44:07;7.63;;;3.33;;
58338;SDS011;68636;52.704;6.536;2023-07-31T13:46:32;7.97;;;3.80;;
58338;SDS011;68636;52.704;6.536;2023-07-31T13:48:58;9.97;;;3.73;;
58338;SDS011;68636;52.704;6.536;2023-07-31T13:51:25;9.68;;;3.88;;
58338;SDS011;68636;52.704;6.536;2023-07-31T13:53:51;8.65;;;3.60;;
58338;SDS011;68636;52.704;6.536;2023-07-31T13:56:16;6.27;;;2.30;;
58338;SDS011;68636;52.704;6.536;2023-07-31T13:58:42;6.87;;;2.30;;
58338;SDS011;68636;52.704;6.536;2023-07-31T14:01:08;5.00;;;1.83;;
58338;SDS011;68636;52.704;6.536;2023-07-31T14:03:34;7.97;;;2.60;;
58338;SDS011;68636;52.704;6.536;2023-07-31T14:05:59;11.50;;;2.60;;
58338;SDS011;68636;52.704;6.536;2023-07-31T14:08:25;6.87;;;2.20;;
58338;SDS011;68636;52.704;6.536;2023-07-31T14:10:51;8.17;;;2.40;;
58338;SDS011;68636;52.704;6.536;2023-07-31T14:13:17;8.80;;;2.20;;
58338;SDS011;68636;52.704;6.536;2023-07-31T14:15:43;7.37;;;2.60;;
58338;SDS011;68636;52.704;6.536;2023-07-31T14:18:09;6.50;;;2.83;;
58338;SDS011;68636;52.704;6.536;2023-07-31T14:20:34;7.47;;;2.60;;
58338;SDS011;68636;52.704;6.536;2023-07-31T14:23:01;10.10;;;3.83;;
58338;SDS011;68636;52.704;6.536;2023-07-31T14:25:27;10.95;;;3.00;;
58338;SDS011;68636;52.704;6.536;2023-07-31T14:27:53;7.63;;;2.90;;
58338;SDS011;68636;52.704;6.536;2023-07-31T14:30:19;6.30;;;2.57;;
58338;SDS011;68636;52.704;6.536;2023-07-31T14:32:45;6.27;;;3.03;;
58338;SDS011;68636;52.704;6.536;2023-07-31T14:35:11;7.03;;;2.92;;
58338;SDS011;68636;52.704;6.536;2023-07-31T14:37:38;7.60;;;2.77;;
58338;SDS011;68636;52.704;6.536;2023-07-31T14:40:05;7.68;;;2.90;;
58338;SDS011;68636;52.704;6.536;2023-07-31T14:42:32;9.73;;;2.70;;
58338;SDS011;68636;52.704;6.536;2023-07-31T14:44:58;10.93;;;2.83;;
58338;SDS011;68636;52.704;6.536;2023-07-31T14:47:23;6.50;;;2.37;;
58338;SDS011;68636;52.704;6.536;2023-07-31T14:49:49;10.23;;;2.33;;
58338;SDS011;68636;52.704;6.536;2023-07-31T14:52:15;7.40;;;2.60;;
58338;SDS011;68636;52.704;6.536;2023-07-31T14:54:40;5.43;;;2.27;;
58338;SDS011;68636;52.704;6.536;2023-07-31T14:57:06;6.40;;;2.40;;
58338;SDS011;68636;52.704;6.536;2023-07-31T14:59:33;7.65;;;2.88;;
58338;SDS011;68636;52.704;6.536;2023-07-31T15:01:59;10.97;;;2.80;;